Last 24 Hours

Red Mountain

10 Minute Data | America/Los_Angeles
as of 1/27/20 10:34 AM PST
Date & Time Temp (°F) Dew Pt (°F) RH (%) Wind Spd (mph) Wind Dir (°) Wind Gust (mph) Wind Gst Dir (°) Daily Max Temp (°F) Daily Min Temp (°F)
1/27/20 - 1030 54.3 32.5 43 5.3 WSW | 244 8.6 WSW | 257 57.7 43.0
1/27/20 - 1020 53.6 34.0 47 6.4 SW | 229 12.5 SW | 234 57.7 43.0
1/27/20 - 1010 55.0 32.9 43 6.0 SW | 227 11.2 SW | 230 57.7 43.0
1/27/20 - 1000 55.2 31.4 40 3.2 SW | 234 6.1 WSW | 251 57.7 43.0
1/27/20 - 0950 54.7 29.3 38 3.6 SW | 226 5.7 SW | 228 57.7 43.0
1/27/20 - 0940 54.3 30.7 40 4.1 WSW | 237 5.7 SW | 225 57.7 43.0
1/27/20 - 0930 56.5 29.4 35 2.8 ESE | 119 6.1 ENE | 76 57.7 43.0
1/27/20 - 0920 56.3 27.3 33 5.5 ENE | 74 8.1 E | 83 57.0 43.0
1/27/20 - 0910 55.6 27.4 34 5.9 ENE | 63 7.9 NE | 51 56.8 43.0
1/27/20 - 0900 56.0 26.4 32 4.9 ENE | 63 8.1 NE | 47 56.8 43.0
1/27/20 - 0850 55.3 25.8 32 4.0 ENE | 71 6.1 NE | 56 56.5 43.0
1/27/20 - 0840 54.0 27.2 35 6.3 ENE | 59 9.9 ENE | 65 54.8 43.0
1/27/20 - 0830 53.5 26.8 35 8.2 ENE | 62 10.7 ENE | 67 53.9 43.0
1/27/20 - 0820 53.3 27.4 37 7.7 ENE | 59 10.1 ENE | 59 53.8 43.0
1/27/20 - 0810 53.4 27.3 36 5.9 ENE | 65 9.6 ENE | 59 53.8 43.0
1/27/20 - 0800 52.5 27.2 37 5.0 ENE | 60 7.0 ENE | 62 53.2 43.0
1/27/20 - 0750 52.3 26.9 37 4.1 NE | 48 7.0 NE | 50 52.7 43.0
1/27/20 - 0740 52.2 26.1 36 4.0 ENE | 59 5.3 ENE | 66 52.7 43.0
1/27/20 - 0730 51.9 26.0 36 5.9 ENE | 73 7.2 ENE | 74 52.6 43.0
1/27/20 - 0720 52.1 25.9 36 5.1 ENE | 75 6.8 ENE | 72 52.6 43.0
1/27/20 - 0710 51.8 25.8 36 3.5 E | 80 5.3 E | 92 52.6 43.0
1/27/20 - 0700 51.2 26.5 38 3.4 ENE | 58 4.8 ENE | 59 52.1 43.0
1/27/20 - 0650 51.6 25.8 36 2.4 NE | 54 3.7 ENE | 58 52.1 43.0
1/27/20 - 0640 50.2 25.9 39 1.0 ENE | 59 2.2 NNE | 28 52.1 43.0
1/27/20 - 0630 49.0 28.4 45 3.6 WSW | 256 6.4 W | 265 52.1 43.0
1/27/20 - 0620 50.7 26.6 39 2.8 SW | 234 3.9 WSW | 251 52.1 43.0
1/27/20 - 0610 50.4 27.2 40 3.4 SSW | 208 5.0 S | 191 50.8 43.0
1/27/20 - 0600 49.6 27.7 42 3.3 SSE | 165 6.4 S | 175 50.2 43.0
1/27/20 - 0550 47.8 28.7 47 4.4 SE | 140 6.8 S | 174 49.4 43.0
1/27/20 - 0540 47.6 28.6 48 6.4 SE | 135 9.0 SE | 133 49.2 43.0
1/27/20 - 0530 48.1 27.7 45 7.5 SE | 133 10.5 SE | 132 49.2 43.0
1/27/20 - 0520 47.7 27.8 46 9.1 SE | 129 11.4 SE | 130 49.2 43.0
1/27/20 - 0510 45.4 30.6 56 8.5 ESE | 122 10.3 ESE | 120 49.2 43.0
1/27/20 - 0500 44.3 31.6 61 10.3 ESE | 122 12.1 ESE | 122 49.2 43.0
1/27/20 - 0450 44.6 31.5 60 9.1 SE | 126 12.5 ESE | 117 49.2 43.0
1/27/20 - 0440 44.9 31.5 59 5.8 SE | 146 8.6 SE | 139 49.2 43.0
1/27/20 - 0430 44.7 31.5 60 5.1 SE | 146 7.7 SE | 138 49.2 43.0
1/27/20 - 0420 45.9 30.3 54 5.3 SSE | 161 6.8 S | 172 49.2 43.0
1/27/20 - 0410 47.5 28.5 47 5.2 S | 188 7.2 S | 179 49.2 43.0
1/27/20 - 0400 47.7 27.5 45 5.4 S | 173 9.0 S | 183 49.2 43.0
1/27/20 - 0350 44.5 31.6 60 7.1 SE | 126 10.1 SE | 124 46.2 43.0
1/27/20 - 0340 43.8 32.5 64 9.0 SE | 129 11.6 SE | 127 46.2 43.0
1/27/20 - 0330 44.3 32.0 62 6.9 SSE | 156 8.8 SE | 138 46.2 43.0
1/27/20 - 0320 44.6 31.7 60 4.4 ESE | 122 7.2 SSE | 156 46.2 43.0
1/27/20 - 0310 44.2 32.1 62 5.1 SE | 135 7.0 SE | 133 46.2 43.0
1/27/20 - 0300 44.2 32.1 62 6.7 SE | 128 7.9 SE | 127 46.2 43.0
1/27/20 - 0250 44.5 31.8 61 7.1 SE | 135 9.0 SE | 138 46.2 43.0
1/27/20 - 0240 45.1 31.6 59 6.3 ESE | 110 9.0 ESE | 112 46.2 43.0
1/27/20 - 0230 45.6 30.7 56 3.4 ENE | 74 7.0 ENE | 69 46.2 43.0
1/27/20 - 0220 44.8 31.5 59 4.9 NW | 313 7.2 WNW | 296 45.6 43.0
1/27/20 - 0210 43.9 32.2 63 1.4 NNE | 24 3.7 NW | 325 44.6 43.0
1/27/20 - 0200 44.0 32.5 64 2.1 NE | 42 4.6 ENE | 72 44.6 43.0
1/27/20 - 0150 44.0 32.6 64 2.6 NNW | 344 6.1 NNW | 342 44.6 43.0
1/27/20 - 0140 44.0 32.8 65 3.8 NNW | 347 6.6 NNW | 337 44.6 43.0
1/27/20 - 0130 43.8 32.9 65 4.8 NNW | 331 6.1 NNW | 339 44.6 43.0
1/27/20 - 0120 43.5 32.7 65 6.8 NW | 317 9.2 NW | 323 44.6 43.0
1/27/20 - 0110 43.8 32.6 64 7.0 NW | 321 9.2 NW | 321 44.6 43.0
1/27/20 - 0100 44.0 32.4 64 6.0 NNW | 341 9.0 NNW | 345 44.6 43.0
1/27/20 - 0050 43.6 32.7 65 3.5 NNE | 14 7.0 NNE | 25 44.6 43.0
1/27/20 - 0040 44.0 32.6 64 6.6 NNE | 21 9.9 NNE | 24 44.6 43.0
1/27/20 - 0030 44.0 32.8 65 8.3 NNE | 29 11.4 NE | 35 44.6 43.0
1/27/20 - 0020 43.2 33.4 68 7.0 NNE | 19 10.7 NE | 35 44.2 43.0
1/27/20 - 0010 43.8 32.7 65 10.1 NNW | 346 15.6 NNW | 342 44.2 43.7
1/27/20 - 0000 43.5 33.4 67 9.8 NNW | 347 15.8 NW | 326 55.2 41.4
1/26/20 - 2350 43.3 33.6 68 5.2 N | 358 12.3 N | 355 55.2 41.4
1/26/20 - 2340 43.7 33.1 66 10.4 NNW | 336 16.9 NNW | 339 55.2 41.4
1/26/20 - 2330 44.3 32.5 63 12.9 NNW | 332 19.1 NNW | 335 55.2 41.4
1/26/20 - 2320 45.1 32.0 60 13.8 NW | 323 21.9 NW | 326 55.2 41.4
1/26/20 - 2310 45.2 32.0 59 12.9 NNW | 329 21.7 NW | 323 55.2 41.4
1/26/20 - 2300 45.0 33.0 62 10.2 NNW | 342 17.3 NNW | 347 55.2 41.4
1/26/20 - 2250 45.5 32.9 61 10.5 NNW | 336 18.6 NNW | 330 55.2 41.4
1/26/20 - 2240 45.4 33.8 64 8.9 NNW | 341 14.5 NNW | 336 55.2 41.4
1/26/20 - 2230 45.6 34.0 64 11.1 NNW | 332 18.6 NNW | 340 55.2 41.4
1/26/20 - 2220 46.0 34.3 63 8.3 NNW | 348 14.7 N | 354 55.2 41.4
1/26/20 - 2210 46.2 33.6 61 10.8 NNW | 342 17.8 NNW | 337 55.2 41.4
1/26/20 - 2200 46.5 33.4 60 11.7 NNW | 331 18.8 NW | 326 55.2 41.4
1/26/20 - 2150 47.2 31.1 53 13.0 NW | 323 21.7 NNW | 330 55.2 41.4
1/26/20 - 2140 47.9 32.2 55 12.9 NNW | 332 24.3 NNW | 338 55.2 41.4
1/26/20 - 2130 47.4 34.9 62 9.6 NNW | 347 19.3 NNW | 335 55.2 41.4
1/26/20 - 2120 46.7 37.8 71 5.8 N | 5 7.9 N | 3 55.2 41.4
1/26/20 - 2110 46.8 38.6 73 6.3 N | 8 9.0 N | 8 55.2 41.4
1/26/20 - 2100 46.5 38.5 74 5.9 NNE | 12 8.3 NNE | 21 55.2 41.4
1/26/20 - 2050 46.3 38.1 73 5.1 N | 5 7.5 N | 4 55.2 41.4
1/26/20 - 2040 46.8 37.6 70 8.3 NNW | 331 12.5 NW | 322 55.2 41.4
1/26/20 - 2030 47.4 36.4 65 9.4 WNW | 302 12.5 WNW | 296 55.2 41.4
1/26/20 - 2020 47.9 35.6 62 9.7 WNW | 285 12.1 WNW | 285 55.2 41.4
1/26/20 - 2010 48.4 34.8 59 9.6 WNW | 293 12.3 WNW | 289 55.2 41.4
1/26/20 - 2000 48.4 34.4 58 8.6 WNW | 299 11.0 WNW | 296 55.2 41.4
1/26/20 - 1950 48.3 35.1 60 9.2 WNW | 302 12.9 WNW | 299 55.2 41.4
1/26/20 - 1940 48.6 36.0 61 8.4 NW | 305 11.2 NW | 307 55.2 41.4
1/26/20 - 1930 48.6 33.9 57 5.6 NW | 310 7.5 NW | 311 55.2 41.4
1/26/20 - 1920 46.1 36.0 68 4.2 NW | 324 6.6 NW | 314 55.2 41.4
1/26/20 - 1910 43.2 41.4 93 3.0 N | 4 5.5 NE | 38 55.2 41.4
1/26/20 - 1900 43.2 42.1 96 2.2 N | 2 5.0 NW | 326 55.2 41.4
1/26/20 - 1850 42.4 42.3 99 5.3 NNE | 31 9.6 ENE | 61 55.2 41.4
1/26/20 - 1840 42.8 42.8 100 7.0 NNE | 33 11.8 ENE | 68 55.2 41.4
1/26/20 - 1830 41.8 41.7 100 6.2 NW | 324 11.6 WNW | 300 55.2 41.4
1/26/20 - 1820 41.6 41.0 97 10.7 WNW | 300 14.0 NW | 306 55.2 41.4
1/26/20 - 1810 43.2 39.5 87 10.6 WNW | 301 14.7 WNW | 301 55.2 41.9
1/26/20 - 1800 44.9 37.3 74 8.3 WNW | 299 11.0 NW | 309 55.2 44.6
1/26/20 - 1750 45.7 35.9 68 8.8 WNW | 292 10.7 WNW | 291 55.2 45.0
1/26/20 - 1740 46.3 35.0 64 6.8 W | 281 8.8 W | 277 55.2 46.0
1/26/20 - 1730 46.3 36.8 69 5.8 W | 277 7.0 W | 278 55.2 46.0
1/26/20 - 1720 47.0 36.0 65 6.4 WNW | 290 8.1 WNW | 293 55.2 46.6
1/26/20 - 1710 47.5 37.5 68 5.1 WNW | 282 6.8 W | 276 55.2 47.3
1/26/20 - 1700 48.6 37.8 66 5.5 WSW | 258 7.9 WSW | 258 55.2 47.7
1/26/20 - 1650 48.8 38.3 67 5.9 WSW | 244 8.3 WSW | 258 55.2 48.4
1/26/20 - 1640 49.2 38.4 66 5.9 WSW | 245 8.8 W | 263 55.2 48.7
1/26/20 - 1630 50.2 37.8 63 7.1 SW | 235 10.1 SW | 229 55.2 48.7
1/26/20 - 1620 51.0 37.5 60 9.0 SW | 235 13.6 WSW | 243 55.2 48.7
1/26/20 - 1610 51.6 35.6 54 8.9 SW | 232 12.9 SW | 236 55.2 48.7
1/26/20 - 1600 52.8 34.8 50 8.0 SW | 236 12.9 SW | 236 55.2 48.7
1/26/20 - 1550 52.3 35.3 52 8.1 SW | 233 15.3 WSW | 243 55.2 48.7
1/26/20 - 1540 52.1 36.0 54 9.1 SW | 236 13.6 WSW | 255 55.2 48.7
1/26/20 - 1530 51.5 37.0 57 8.5 SW | 235 12.3 WSW | 238 55.2 48.7
1/26/20 - 1520 52.4 35.4 52 6.3 SW | 230 11.4 WSW | 245 55.2 48.7
1/26/20 - 1510 53.4 35.2 50 7.6 WSW | 243 12.7 WSW | 247 55.2 48.7
1/26/20 - 1500 54.1 35.5 49 7.8 SW | 235 13.2 SW | 230 55.2 48.7
1/26/20 - 1450 54.2 35.8 50 7.3 WSW | 244 11.4 SW | 229 55.2 48.7
1/26/20 - 1440 53.4 32.0 44 7.8 WSW | 246 13.8 WSW | 242 55.2 48.7
1/26/20 - 1430 54.2 35.3 49 8.0 SW | 235 13.6 WSW | 241 55.2 48.7
1/26/20 - 1420 53.8 32.2 44 8.4 SW | 236 14.2 SW | 233 55.2 48.7
1/26/20 - 1410 53.7 32.0 43 8.6 WSW | 238 14.2 WSW | 243 55.2 48.7
1/26/20 - 1400 53.5 34.7 49 8.2 SW | 230 14.2 SW | 227 55.2 48.7
1/26/20 - 1350 53.4 36.7 53 9.2 SW | 230 14.7 WSW | 248 55.2 48.7
1/26/20 - 1340 53.2 37.3 55 9.5 WSW | 244 14.5 WSW | 245 55.2 48.7
1/26/20 - 1330 53.0 36.1 53 11.2 WSW | 237 16.4 WSW | 244 55.0 48.7
1/26/20 - 1320 52.6 34.1 49 10.0 WSW | 241 16.0 SW | 231 55.0 48.7
1/26/20 - 1310 53.1 37.0 54 10.7 WSW | 244 16.9 WSW | 244 55.0 48.7
1/26/20 - 1300 52.2 38.9 60 10.8 WSW | 252 15.8 W | 261 55.0 48.7
1/26/20 - 1250 53.0 38.7 58 11.2 W | 259 16.9 WSW | 253 55.0 48.7
1/26/20 - 1240 53.7 35.9 51 8.4 WSW | 249 13.8 WSW | 242 55.0 48.7
1/26/20 - 1230 53.4 34.2 48 6.0 SW | 229 11.4 WSW | 254 55.0 48.7
1/26/20 - 1220 52.8 36.4 54 4.9 WSW | 242 9.2 WSW | 248 55.0 48.7
1/26/20 - 1210 52.6 37.8 57 6.9 W | 259 9.9 WSW | 244 55.0 48.7
1/26/20 - 1200 52.4 39.8 62 3.8 W | 264 9.2 WSW | 255 55.0 48.7
1/26/20 - 1150 51.0 40.8 68 5.9 W | 260 10.1 WSW | 257 55.0 48.7
1/26/20 - 1140 50.9 41.0 69 7.5 W | 272 11.6 W | 272 55.0 48.7
1/26/20 - 1130 50.6 40.6 68 8.3 W | 260 12.1 W | 273 55.0 48.7
1/26/20 - 1120 51.0 40.6 68 7.1 WSW | 255 11.0 WSW | 255 55.0 48.7
1/26/20 - 1110 51.6 40.7 66 7.0 WSW | 258 11.6 WSW | 254 55.0 48.7
1/26/20 - 1100 52.4 39.9 62 6.7 WSW | 251 11.8 W | 276 55.0 48.7
1/26/20 - 1050 52.1 39.0 61 6.9 WSW | 247 10.3 WSW | 255 55.0 48.7
1/26/20 - 1040 52.8 39.9 61 7.7 WSW | 248 12.3 WSW | 252 55.0 48.7
1/26/20 - 1030 52.2 38.1 59 7.7 WSW | 257 11.6 WSW | 240 55.0 48.7
Max 56.5 42.8 100 13.8 - 24.3 - 57.7 48.7
Avg 48.8 33.6 57 7.0 - 10.7 - - -
Min 41.6 25.8 32 1.0 - 2.2 - 44.2 41.4